sensor_id;sensor_type;location;lat;lon;timestamp;P1;durP1;ratioP1;P2;durP2;ratioP2
68168;SDS011;54981;50.206;15.978;2023-02-28T00:01:50;26.17;;;23.38;;
68168;SDS011;54981;50.206;15.978;2023-02-28T00:04:20;26.73;;;23.90;;
68168;SDS011;54981;50.206;15.978;2023-02-28T00:06:51;25.55;;;23.23;;
68168;SDS011;54981;50.206;15.978;2023-02-28T00:09:21;24.98;;;22.02;;
68168;SDS011;54981;50.206;15.978;2023-02-28T00:11:52;25.70;;;22.63;;
68168;SDS011;54981;50.206;15.978;2023-02-28T00:14:22;27.17;;;23.75;;
68168;SDS011;54981;50.206;15.978;2023-02-28T00:16:53;33.53;;;23.30;;
68168;SDS011;54981;50.206;15.978;2023-02-28T00:19:23;25.73;;;22.52;;
68168;SDS011;54981;50.206;15.978;2023-02-28T00:21:54;26.25;;;23.60;;
68168;SDS011;54981;50.206;15.978;2023-02-28T00:24:24;24.85;;;22.35;;
68168;SDS011;54981;50.206;15.978;2023-02-28T00:26:54;24.48;;;21.85;;
68168;SDS011;54981;50.206;15.978;2023-02-28T00:29:25;24.52;;;22.20;;
68168;SDS011;54981;50.206;15.978;2023-02-28T00:31:55;27.33;;;23.25;;
68168;SDS011;54981;50.206;15.978;2023-02-28T00:34:25;24.08;;;21.80;;
68168;SDS011;54981;50.206;15.978;2023-02-28T00:36:56;24.33;;;21.85;;
68168;SDS011;54981;50.206;15.978;2023-02-28T00:39:26;26.20;;;23.38;;
68168;SDS011;54981;50.206;15.978;2023-02-28T00:41:57;27.05;;;23.60;;
68168;SDS011;54981;50.206;15.978;2023-02-28T00:44:27;25.70;;;22.27;;
68168;SDS011;54981;50.206;15.978;2023-02-28T00:46:59;24.73;;;22.15;;
68168;SDS011;54981;50.206;15.978;2023-02-28T00:49:30;25.88;;;22.85;;
68168;SDS011;54981;50.206;15.978;2023-02-28T00:52:01;24.90;;;21.83;;
68168;SDS011;54981;50.206;15.978;2023-02-28T00:54:32;23.45;;;21.10;;
68168;SDS011;54981;50.206;15.978;2023-02-28T00:57:02;24.85;;;22.42;;
68168;SDS011;54981;50.206;15.978;2023-02-28T00:59:32;23.55;;;21.13;;
68168;SDS011;54981;50.206;15.978;2023-02-28T01:02:03;27.17;;;23.40;;
68168;SDS011;54981;50.206;15.978;2023-02-28T01:04:33;22.15;;;19.25;;
68168;SDS011;54981;50.206;15.978;2023-02-28T01:07:04;27.23;;;22.55;;
68168;SDS011;54981;50.206;15.978;2023-02-28T01:09:34;30.08;;;21.85;;
68168;SDS011;54981;50.206;15.978;2023-02-28T01:12:05;24.42;;;21.92;;
68168;SDS011;54981;50.206;15.978;2023-02-28T01:14:37;22.67;;;20.40;;
68168;SDS011;54981;50.206;15.978;2023-02-28T01:17:07;24.52;;;21.63;;
68168;SDS011;54981;50.206;15.978;2023-02-28T01:19:38;23.02;;;20.55;;
68168;SDS011;54981;50.206;15.978;2023-02-28T01:22:09;24.92;;;21.08;;
68168;SDS011;54981;50.206;15.978;2023-02-28T01:24:39;26.83;;;23.95;;
68168;SDS011;54981;50.206;15.978;2023-02-28T01:27:09;31.08;;;26.83;;
68168;SDS011;54981;50.206;15.978;2023-02-28T01:29:40;27.77;;;24.65;;
68168;SDS011;54981;50.206;15.978;2023-02-28T01:32:10;28.08;;;25.30;;
68168;SDS011;54981;50.206;15.978;2023-02-28T01:34:41;36.97;;;28.25;;
68168;SDS011;54981;50.206;15.978;2023-02-28T01:37:11;28.67;;;25.60;;
68168;SDS011;54981;50.206;15.978;2023-02-28T01:39:41;27.08;;;24.15;;
68168;SDS011;54981;50.206;15.978;2023-02-28T01:42:12;35.38;;;28.48;;
68168;SDS011;54981;50.206;15.978;2023-02-28T01:44:56;40.00;;;28.50;;
68168;SDS011;54981;50.206;15.978;2023-02-28T01:47:36;39.47;;;30.42;;
68168;SDS011;54981;50.206;15.978;2023-02-28T01:50:12;34.17;;;27.20;;
68168;SDS011;54981;50.206;15.978;2023-02-28T01:52:47;26.20;;;23.52;;
68168;SDS011;54981;50.206;15.978;2023-02-28T01:55:20;28.92;;;22.23;;
68168;SDS011;54981;50.206;15.978;2023-02-28T01:57:53;31.63;;;24.10;;
68168;SDS011;54981;50.206;15.978;2023-02-28T02:00:26;31.17;;;25.08;;
68168;SDS011;54981;50.206;15.978;2023-02-28T02:02:59;29.00;;;24.15;;
68168;SDS011;54981;50.206;15.978;2023-02-28T02:05:36;28.75;;;25.27;;
68168;SDS011;54981;50.206;15.978;2023-02-28T02:08:12;35.00;;;26.00;;
68168;SDS011;54981;50.206;15.978;2023-02-28T02:10:51;36.08;;;28.58;;
68168;SDS011;54981;50.206;15.978;2023-02-28T02:41:48;30.00;;;24.48;;
68168;SDS011;54981;50.206;15.978;2023-02-28T02:44:26;27.65;;;23.38;;
68168;SDS011;54981;50.206;15.978;2023-02-28T02:47:20;28.35;;;23.40;;
68168;SDS011;54981;50.206;15.978;2023-02-28T02:49:55;26.58;;;23.98;;
68168;SDS011;54981;50.206;15.978;2023-02-28T02:52:31;29.20;;;23.65;;
68168;SDS011;54981;50.206;15.978;2023-02-28T02:55:07;26.13;;;23.50;;
68168;SDS011;54981;50.206;15.978;2023-02-28T02:57:45;28.05;;;25.10;;
68168;SDS011;54981;50.206;15.978;2023-02-28T03:00:18;29.25;;;26.17;;
68168;SDS011;54981;50.206;15.978;2023-02-28T03:02:53;25.50;;;22.92;;
68168;SDS011;54981;50.206;15.978;2023-02-28T03:05:36;29.00;;;26.02;;
68168;SDS011;54981;50.206;15.978;2023-02-28T03:08:19;29.58;;;26.55;;
68168;SDS011;54981;50.206;15.978;2023-02-28T03:10:51;29.65;;;24.10;;
68168;SDS011;54981;50.206;15.978;2023-02-28T03:13:37;28.13;;;24.23;;
68168;SDS011;54981;50.206;15.978;2023-02-28T03:16:33;30.83;;;26.13;;
68168;SDS011;54981;50.206;15.978;2023-02-28T03:24:55;27.67;;;24.77;;
68168;SDS011;54981;50.206;15.978;2023-02-28T03:35:48;33.35;;;25.77;;
68168;SDS011;54981;50.206;15.978;2023-02-28T03:41:15;30.40;;;23.55;;
68168;SDS011;54981;50.206;15.978;2023-02-28T03:43:55;37.85;;;27.00;;
68168;SDS011;54981;50.206;15.978;2023-02-28T03:46:31;33.90;;;27.20;;
68168;SDS011;54981;50.206;15.978;2023-02-28T03:49:07;31.20;;;27.08;;
68168;SDS011;54981;50.206;15.978;2023-02-28T03:51:44;31.85;;;27.52;;
68168;SDS011;54981;50.206;15.978;2023-02-28T03:54:19;27.88;;;25.02;;
68168;SDS011;54981;50.206;15.978;2023-02-28T04:00:14;29.13;;;26.20;;
68168;SDS011;54981;50.206;15.978;2023-02-28T04:02:50;31.50;;;27.17;;
68168;SDS011;54981;50.206;15.978;2023-02-28T04:05:22;33.78;;;25.50;;
68168;SDS011;54981;50.206;15.978;2023-02-28T04:07:53;31.25;;;27.23;;
68168;SDS011;54981;50.206;15.978;2023-02-28T04:10:24;32.75;;;25.17;;
68168;SDS011;54981;50.206;15.978;2023-02-28T04:12:54;32.60;;;27.15;;
68168;SDS011;54981;50.206;15.978;2023-02-28T04:15:24;38.35;;;29.77;;
68168;SDS011;54981;50.206;15.978;2023-02-28T04:17:57;32.45;;;27.17;;
68168;SDS011;54981;50.206;15.978;2023-02-28T04:20:27;34.67;;;28.05;;
68168;SDS011;54981;50.206;15.978;2023-02-28T04:22:58;35.42;;;28.50;;
68168;SDS011;54981;50.206;15.978;2023-02-28T04:25:28;43.83;;;28.63;;
68168;SDS011;54981;50.206;15.978;2023-02-28T04:27:58;36.17;;;28.33;;
68168;SDS011;54981;50.206;15.978;2023-02-28T04:30:29;32.50;;;29.10;;
68168;SDS011;54981;50.206;15.978;2023-02-28T04:32:59;34.95;;;28.90;;
68168;SDS011;54981;50.206;15.978;2023-02-28T04:35:30;37.22;;;31.08;;
68168;SDS011;54981;50.206;15.978;2023-02-28T04:38:00;34.17;;;27.92;;
68168;SDS011;54981;50.206;15.978;2023-02-28T04:40:30;34.53;;;27.60;;
68168;SDS011;54981;50.206;15.978;2023-02-28T04:43:01;36.38;;;27.05;;
68168;SDS011;54981;50.206;15.978;2023-02-28T04:45:31;29.70;;;26.15;;
68168;SDS011;54981;50.206;15.978;2023-02-28T04:48:03;34.58;;;28.92;;
68168;SDS011;54981;50.206;15.978;2023-02-28T04:50:34;32.60;;;26.50;;
68168;SDS011;54981;50.206;15.978;2023-02-28T04:53:04;34.05;;;25.80;;
68168;SDS011;54981;50.206;15.978;2023-02-28T04:55:34;31.25;;;26.02;;
68168;SDS011;54981;50.206;15.978;2023-02-28T04:58:05;32.03;;;25.63;;
68168;SDS011;54981;50.206;15.978;2023-02-28T05:00:35;28.45;;;24.40;;
68168;SDS011;54981;50.206;15.978;2023-02-28T05:03:06;31.10;;;26.00;;
68168;SDS011;54981;50.206;15.978;2023-02-28T05:05:36;25.40;;;22.67;;
68168;SDS011;54981;50.206;15.978;2023-02-28T05:08:06;28.45;;;24.98;;
68168;SDS011;54981;50.206;15.978;2023-02-28T05:10:37;29.67;;;26.30;;
68168;SDS011;54981;50.206;15.978;2023-02-28T05:13:09;33.45;;;28.27;;
68168;SDS011;54981;50.206;15.978;2023-02-28T05:15:43;34.95;;;26.30;;
68168;SDS011;54981;50.206;15.978;2023-02-28T05:18:13;32.45;;;28.80;;
68168;SDS011;54981;50.206;15.978;2023-02-28T05:20:44;29.67;;;25.17;;
68168;SDS011;54981;50.206;15.978;2023-02-28T05:23:14;30.65;;;26.10;;
68168;SDS011;54981;50.206;15.978;2023-02-28T05:25:47;29.45;;;25.85;;
68168;SDS011;54981;50.206;15.978;2023-02-28T05:28:18;43.20;;;33.55;;
68168;SDS011;54981;50.206;15.978;2023-02-28T05:30:49;56.65;;;37.22;;
68168;SDS011;54981;50.206;15.978;2023-02-28T05:33:19;82.70;;;56.88;;
68168;SDS011;54981;50.206;15.978;2023-02-28T05:35:50;65.50;;;44.78;;
68168;SDS011;54981;50.206;15.978;2023-02-28T05:38:20;59.75;;;41.63;;
68168;SDS011;54981;50.206;15.978;2023-02-28T05:40:50;61.25;;;41.03;;
68168;SDS011;54981;50.206;15.978;2023-02-28T05:43:22;50.70;;;37.17;;
68168;SDS011;54981;50.206;15.978;2023-02-28T05:45:52;52.42;;;40.25;;
68168;SDS011;54981;50.206;15.978;2023-02-28T05:48:22;46.00;;;36.03;;
68168;SDS011;54981;50.206;15.978;2023-02-28T05:50:53;48.88;;;37.85;;
68168;SDS011;54981;50.206;15.978;2023-02-28T05:53:23;56.95;;;38.55;;
68168;SDS011;54981;50.206;15.978;2023-02-28T05:55:54;45.63;;;36.30;;
68168;SDS011;54981;50.206;15.978;2023-02-28T05:58:24;45.28;;;37.25;;
68168;SDS011;54981;50.206;15.978;2023-02-28T06:01:18;42.50;;;33.97;;
68168;SDS011;54981;50.206;15.978;2023-02-28T06:04:09;43.85;;;32.72;;
68168;SDS011;54981;50.206;15.978;2023-02-28T06:06:40;43.40;;;34.10;;
68168;SDS011;54981;50.206;15.978;2023-02-28T06:09:10;40.47;;;33.15;;
68168;SDS011;54981;50.206;15.978;2023-02-28T06:11:41;47.60;;;36.28;;
68168;SDS011;54981;50.206;15.978;2023-02-28T06:14:16;45.97;;;36.03;;
68168;SDS011;54981;50.206;15.978;2023-02-28T06:16:48;54.60;;;34.50;;
68168;SDS011;54981;50.206;15.978;2023-02-28T06:19:18;53.05;;;37.80;;
68168;SDS011;54981;50.206;15.978;2023-02-28T06:21:49;54.80;;;37.80;;
68168;SDS011;54981;50.206;15.978;2023-02-28T06:24:21;53.08;;;39.30;;
68168;SDS011;54981;50.206;15.978;2023-02-28T06:26:52;78.10;;;45.65;;
68168;SDS011;54981;50.206;15.978;2023-02-28T06:29:23;66.07;;;45.13;;
68168;SDS011;54981;50.206;15.978;2023-02-28T06:31:53;72.97;;;45.25;;
68168;SDS011;54981;50.206;15.978;2023-02-28T06:34:23;74.15;;;46.95;;
68168;SDS011;54981;50.206;15.978;2023-02-28T06:36:54;67.30;;;43.70;;
68168;SDS011;54981;50.206;15.978;2023-02-28T06:39:24;62.22;;;42.33;;
68168;SDS011;54981;50.206;15.978;2023-02-28T06:41:55;64.88;;;41.60;;
68168;SDS011;54981;50.206;15.978;2023-02-28T06:44:25;60.50;;;37.55;;
68168;SDS011;54981;50.206;15.978;2023-02-28T06:46:55;49.25;;;38.17;;
68168;SDS011;54981;50.206;15.978;2023-02-28T06:49:26;57.10;;;40.67;;
68168;SDS011;54981;50.206;15.978;2023-02-28T06:51:57;63.72;;;40.67;;
68168;SDS011;54981;50.206;15.978;2023-02-28T06:54:27;64.50;;;41.72;;
68168;SDS011;54981;50.206;15.978;2023-02-28T06:56:58;60.10;;;43.65;;
68168;SDS011;54981;50.206;15.978;2023-02-28T06:59:28;57.20;;;42.60;;
68168;SDS011;54981;50.206;15.978;2023-02-28T07:01:59;63.40;;;39.92;;
68168;SDS011;54981;50.206;15.978;2023-02-28T07:04:30;60.60;;;39.72;;
68168;SDS011;54981;50.206;15.978;2023-02-28T07:07:00;53.75;;;36.13;;
68168;SDS011;54981;50.206;15.978;2023-02-28T07:09:30;53.35;;;37.13;;
68168;SDS011;54981;50.206;15.978;2023-02-28T07:12:01;57.95;;;37.55;;
68168;SDS011;54981;50.206;15.978;2023-02-28T07:14:31;51.50;;;35.85;;
68168;SDS011;54981;50.206;15.978;2023-02-28T07:17:01;44.92;;;34.35;;
68168;SDS011;54981;50.206;15.978;2023-02-28T07:19:32;48.70;;;35.85;;
68168;SDS011;54981;50.206;15.978;2023-02-28T07:22:02;39.75;;;32.20;;
68168;SDS011;54981;50.206;15.978;2023-02-28T07:24:32;46.08;;;33.15;;
68168;SDS011;54981;50.206;15.978;2023-02-28T07:27:03;37.78;;;30.15;;
68168;SDS011;54981;50.206;15.978;2023-02-28T07:29:33;44.90;;;33.78;;
68168;SDS011;54981;50.206;15.978;2023-02-28T07:32:04;50.28;;;36.47;;
68168;SDS011;54981;50.206;15.978;2023-02-28T07:34:34;39.45;;;33.13;;
68168;SDS011;54981;50.206;15.978;2023-02-28T07:37:05;40.30;;;32.78;;
68168;SDS011;54981;50.206;15.978;2023-02-28T07:39:35;36.33;;;29.25;;
68168;SDS011;54981;50.206;15.978;2023-02-28T07:42:07;31.48;;;27.13;;
68168;SDS011;54981;50.206;15.978;2023-02-28T07:44:40;32.28;;;26.52;;
68168;SDS011;54981;50.206;15.978;2023-02-28T07:47:11;29.63;;;24.92;;
68168;SDS011;54981;50.206;15.978;2023-02-28T07:49:41;33.13;;;28.95;;
68168;SDS011;54981;50.206;15.978;2023-02-28T07:52:11;26.65;;;23.77;;
68168;SDS011;54981;50.206;15.978;2023-02-28T07:54:42;28.77;;;25.90;;
68168;SDS011;54981;50.206;15.978;2023-02-28T07:57:12;29.80;;;24.45;;
68168;SDS011;54981;50.206;15.978;2023-02-28T07:59:43;31.55;;;27.13;;
68168;SDS011;54981;50.206;15.978;2023-02-28T08:02:13;26.30;;;22.48;;
68168;SDS011;54981;50.206;15.978;2023-02-28T08:04:45;32.25;;;27.40;;
68168;SDS011;54981;50.206;15.978;2023-02-28T08:07:16;27.70;;;24.45;;
68168;SDS011;54981;50.206;15.978;2023-02-28T08:09:47;28.63;;;22.40;;
68168;SDS011;54981;50.206;15.978;2023-02-28T08:12:17;25.58;;;22.98;;
68168;SDS011;54981;50.206;15.978;2023-02-28T08:14:48;29.25;;;26.10;;
68168;SDS011;54981;50.206;15.978;2023-02-28T08:17:18;25.88;;;23.30;;
68168;SDS011;54981;50.206;15.978;2023-02-28T08:19:48;26.52;;;22.42;;
68168;SDS011;54981;50.206;15.978;2023-02-28T08:22:19;25.25;;;22.23;;
68168;SDS011;54981;50.206;15.978;2023-02-28T08:24:49;25.95;;;20.88;;
68168;SDS011;54981;50.206;15.978;2023-02-28T08:27:19;24.00;;;21.52;;
68168;SDS011;54981;50.206;15.978;2023-02-28T08:29:50;22.40;;;20.08;;
68168;SDS011;54981;50.206;15.978;2023-02-28T08:32:20;24.45;;;22.00;;
68168;SDS011;54981;50.206;15.978;2023-02-28T08:34:51;23.35;;;21.05;;
68168;SDS011;54981;50.206;15.978;2023-02-28T08:37:21;25.48;;;22.85;;
68168;SDS011;54981;50.206;15.978;2023-02-28T08:39:51;22.65;;;20.52;;
68168;SDS011;54981;50.206;15.978;2023-02-28T08:42:22;22.02;;;19.90;;
68168;SDS011;54981;50.206;15.978;2023-02-28T08:44:53;21.33;;;18.92;;
68168;SDS011;54981;50.206;15.978;2023-02-28T08:47:23;20.88;;;18.52;;
68168;SDS011;54981;50.206;15.978;2023-02-28T08:49:54;22.88;;;20.50;;
68168;SDS011;54981;50.206;15.978;2023-02-28T08:52:24;25.92;;;23.63;;
68168;SDS011;54981;50.206;15.978;2023-02-28T08:54:55;22.38;;;20.40;;
68168;SDS011;54981;50.206;15.978;2023-02-28T08:57:25;20.63;;;18.45;;
68168;SDS011;54981;50.206;15.978;2023-02-28T08:59:58;23.20;;;20.92;;
68168;SDS011;54981;50.206;15.978;2023-02-28T09:02:28;23.63;;;21.30;;
68168;SDS011;54981;50.206;15.978;2023-02-28T09:04:59;23.63;;;21.27;;
68168;SDS011;54981;50.206;15.978;2023-02-28T09:07:29;22.35;;;20.05;;
68168;SDS011;54981;50.206;15.978;2023-02-28T09:09:59;24.52;;;22.10;;
68168;SDS011;54981;50.206;15.978;2023-02-28T09:12:32;21.65;;;19.63;;
68168;SDS011;54981;50.206;15.978;2023-02-28T09:15:04;24.08;;;21.88;;
68168;SDS011;54981;50.206;15.978;2023-02-28T09:17:35;22.35;;;20.05;;
68168;SDS011;54981;50.206;15.978;2023-02-28T09:20:06;22.35;;;19.85;;
68168;SDS011;54981;50.206;15.978;2023-02-28T09:22:36;21.90;;;19.05;;
68168;SDS011;54981;50.206;15.978;2023-02-28T09:25:07;26.33;;;20.80;;
68168;SDS011;54981;50.206;15.978;2023-02-28T09:27:37;21.65;;;19.25;;
68168;SDS011;54981;50.206;15.978;2023-02-28T09:30:08;22.83;;;20.70;;
68168;SDS011;54981;50.206;15.978;2023-02-28T09:32:39;21.35;;;19.10;;
68168;SDS011;54981;50.206;15.978;2023-02-28T09:35:09;22.33;;;20.13;;
68168;SDS011;54981;50.206;15.978;2023-02-28T09:37:44;23.05;;;20.80;;
68168;SDS011;54981;50.206;15.978;2023-02-28T09:40:15;22.50;;;20.30;;
68168;SDS011;54981;50.206;15.978;2023-02-28T09:42:48;19.73;;;17.60;;
68168;SDS011;54981;50.206;15.978;2023-02-28T09:45:29;21.63;;;19.45;;
68168;SDS011;54981;50.206;15.978;2023-02-28T09:48:04;20.17;;;18.38;;
68168;SDS011;54981;50.206;15.978;2023-02-28T09:50:42;21.13;;;18.95;;
68168;SDS011;54981;50.206;15.978;2023-02-28T09:53:22;22.02;;;19.17;;
68168;SDS011;54981;50.206;15.978;2023-02-28T09:56:30;20.10;;;18.20;;
68168;SDS011;54981;50.206;15.978;2023-02-28T09:59:02;19.98;;;17.98;;
68168;SDS011;54981;50.206;15.978;2023-02-28T10:02:10;22.08;;;20.27;;
68168;SDS011;54981;50.206;15.978;2023-02-28T10:04:50;19.65;;;17.77;;
68168;SDS011;54981;50.206;15.978;2023-02-28T10:10:28;18.80;;;17.02;;
68168;SDS011;54981;50.206;15.978;2023-02-28T10:13:05;19.90;;;17.90;;
68168;SDS011;54981;50.206;15.978;2023-02-28T10:15:43;18.65;;;16.83;;
68168;SDS011;54981;50.206;15.978;2023-02-28T10:18:17;20.27;;;17.42;;
68168;SDS011;54981;50.206;15.978;2023-02-28T10:20:55;17.83;;;16.10;;
68168;SDS011;54981;50.206;15.978;2023-02-28T10:23:28;20.10;;;18.23;;
68168;SDS011;54981;50.206;15.978;2023-02-28T10:26:09;21.05;;;18.95;;
68168;SDS011;54981;50.206;15.978;2023-02-28T10:28:43;19.73;;;17.52;;
68168;SDS011;54981;50.206;15.978;2023-02-28T10:31:15;18.50;;;16.58;;
68168;SDS011;54981;50.206;15.978;2023-02-28T10:33:49;18.48;;;16.83;;
68168;SDS011;54981;50.206;15.978;2023-02-28T10:36:20;19.00;;;17.30;;
68168;SDS011;54981;50.206;15.978;2023-02-28T10:38:51;20.90;;;19.00;;
68168;SDS011;54981;50.206;15.978;2023-02-28T10:41:31;20.77;;;18.98;;
68168;SDS011;54981;50.206;15.978;2023-02-28T10:44:13;19.70;;;17.80;;
68168;SDS011;54981;50.206;15.978;2023-02-28T10:46:48;19.27;;;17.48;;
68168;SDS011;54981;50.206;15.978;2023-02-28T10:49:23;17.38;;;15.82;;
68168;SDS011;54981;50.206;15.978;2023-02-28T10:51:58;18.25;;;16.45;;
68168;SDS011;54981;50.206;15.978;2023-02-28T10:54:31;20.65;;;18.73;;
68168;SDS011;54981;50.206;15.978;2023-02-28T10:59:50;19.73;;;17.80;;
68168;SDS011;54981;50.206;15.978;2023-02-28T11:02:29;19.15;;;17.15;;
68168;SDS011;54981;50.206;15.978;2023-02-28T11:05:01;20.42;;;18.60;;
68168;SDS011;54981;50.206;15.978;2023-02-28T11:07:31;18.73;;;16.95;;
68168;SDS011;54981;50.206;15.978;2023-02-28T11:10:02;20.08;;;18.13;;
68168;SDS011;54981;50.206;15.978;2023-02-28T11:12:36;19.15;;;17.45;;
68168;SDS011;54981;50.206;15.978;2023-02-28T11:15:30;17.65;;;15.85;;
68168;SDS011;54981;50.206;15.978;2023-02-28T11:18:02;17.83;;;16.00;;
68168;SDS011;54981;50.206;15.978;2023-02-28T11:20:50;19.05;;;17.08;;
68168;SDS011;54981;50.206;15.978;2023-02-28T11:23:25;18.30;;;16.80;;
68168;SDS011;54981;50.206;15.978;2023-02-28T11:25:59;18.25;;;16.63;;
68168;SDS011;54981;50.206;15.978;2023-02-28T11:28:32;20.35;;;18.25;;
68168;SDS011;54981;50.206;15.978;2023-02-28T11:31:09;16.95;;;15.45;;
68168;SDS011;54981;50.206;15.978;2023-02-28T11:33:48;20.35;;;18.48;;
68168;SDS011;54981;50.206;15.978;2023-02-28T11:38:58;19.73;;;17.73;;
68168;SDS011;54981;50.206;15.978;2023-02-28T11:41:53;19.65;;;17.75;;
68168;SDS011;54981;50.206;15.978;2023-02-28T11:47:17;18.20;;;16.60;;
68168;SDS011;54981;50.206;15.978;2023-02-28T11:53:19;16.60;;;15.07;;
68168;SDS011;54981;50.206;15.978;2023-02-28T12:03:58;17.55;;;15.70;;
68168;SDS011;54981;50.206;15.978;2023-02-28T12:09:36;21.02;;;19.02;;
68168;SDS011;54981;50.206;15.978;2023-02-28T12:26:38;19.40;;;17.50;;
68168;SDS011;54981;50.206;15.978;2023-02-28T12:31:59;20.08;;;17.05;;
68168;SDS011;54981;50.206;15.978;2023-02-28T12:34:39;20.02;;;18.20;;
68168;SDS011;54981;50.206;15.978;2023-02-28T12:37:15;19.60;;;17.80;;
68168;SDS011;54981;50.206;15.978;2023-02-28T12:39:54;21.50;;;19.55;;
68168;SDS011;54981;50.206;15.978;2023-02-28T12:42:32;21.60;;;19.75;;
68168;SDS011;54981;50.206;15.978;2023-02-28T12:45:15;21.65;;;19.67;;
68168;SDS011;54981;50.206;15.978;2023-02-28T12:47:55;21.13;;;19.13;;
68168;SDS011;54981;50.206;15.978;2023-02-28T12:50:30;20.27;;;18.27;;
68168;SDS011;54981;50.206;15.978;2023-02-28T12:53:03;19.30;;;17.35;;
68168;SDS011;54981;50.206;15.978;2023-02-28T12:55:57;29.58;;;26.40;;
68168;SDS011;54981;50.206;15.978;2023-02-28T13:03:44;22.35;;;20.10;;
68168;SDS011;54981;50.206;15.978;2023-02-28T13:09:27;22.67;;;16.65;;
68168;SDS011;54981;50.206;15.978;2023-02-28T13:11:59;20.83;;;18.33;;
68168;SDS011;54981;50.206;15.978;2023-02-28T13:19:38;31.25;;;25.95;;
68168;SDS011;54981;50.206;15.978;2023-02-28T13:22:36;25.25;;;22.50;;
68168;SDS011;54981;50.206;15.978;2023-02-28T13:25:49;32.17;;;25.63;;
68168;SDS011;54981;50.206;15.978;2023-02-28T13:27:55;24.45;;;21.73;;
68168;SDS011;54981;50.206;15.978;2023-02-28T13:38:49;19.58;;;17.63;;
68168;SDS011;54981;50.206;15.978;2023-02-28T13:47:15;23.95;;;21.40;;
68168;SDS011;54981;50.206;15.978;2023-02-28T13:54:44;24.25;;;22.35;;
68168;SDS011;54981;50.206;15.978;2023-02-28T14:05:31;20.38;;;18.25;;
68168;SDS011;54981;50.206;15.978;2023-02-28T14:08:07;21.45;;;19.40;;
68168;SDS011;54981;50.206;15.978;2023-02-28T14:10:48;20.77;;;18.70;;
68168;SDS011;54981;50.206;15.978;2023-02-28T14:16:17;21.85;;;19.52;;
68168;SDS011;54981;50.206;15.978;2023-02-28T14:18:55;23.52;;;19.83;;
68168;SDS011;54981;50.206;15.978;2023-02-28T14:21:29;22.10;;;19.92;;
68168;SDS011;54981;50.206;15.978;2023-02-28T14:24:21;20.83;;;18.50;;
68168;SDS011;54981;50.206;15.978;2023-02-28T14:29:55;21.13;;;18.60;;
68168;SDS011;54981;50.206;15.978;2023-02-28T14:35:54;20.45;;;18.35;;
68168;SDS011;54981;50.206;15.978;2023-02-28T14:38:32;26.25;;;24.00;;
68168;SDS011;54981;50.206;15.978;2023-02-28T14:46:50;26.80;;;24.42;;
68168;SDS011;54981;50.206;15.978;2023-02-28T14:49:27;19.35;;;17.52;;
68168;SDS011;54981;50.206;15.978;2023-02-28T14:52:05;22.08;;;19.98;;
68168;SDS011;54981;50.206;15.978;2023-02-28T14:54:36;23.80;;;21.48;;
68168;SDS011;54981;50.206;15.978;2023-02-28T14:57:20;22.83;;;20.38;;
68168;SDS011;54981;50.206;15.978;2023-02-28T15:02:46;22.27;;;19.98;;
68168;SDS011;54981;50.206;15.978;2023-02-28T15:05:27;21.13;;;19.05;;
68168;SDS011;54981;50.206;15.978;2023-02-28T15:08:15;22.75;;;20.45;;
68168;SDS011;54981;50.206;15.978;2023-02-28T15:10:57;24.05;;;21.83;;
68168;SDS011;54981;50.206;15.978;2023-02-28T15:13:46;24.98;;;22.45;;
68168;SDS011;54981;50.206;15.978;2023-02-28T15:16:20;24.58;;;22.02;;
68168;SDS011;54981;50.206;15.978;2023-02-28T15:21:34;23.02;;;20.08;;
68168;SDS011;54981;50.206;15.978;2023-02-28T15:24:13;24.98;;;22.58;;
68168;SDS011;54981;50.206;15.978;2023-02-28T15:26:46;28.02;;;22.63;;
68168;SDS011;54981;50.206;15.978;2023-02-28T15:29:24;24.98;;;22.50;;
68168;SDS011;54981;50.206;15.978;2023-02-28T15:32:05;24.42;;;21.95;;
68168;SDS011;54981;50.206;15.978;2023-02-28T15:34:41;26.45;;;21.58;;
68168;SDS011;54981;50.206;15.978;2023-02-28T15:45:33;27.58;;;24.60;;
68168;SDS011;54981;50.206;15.978;2023-02-28T15:48:21;28.30;;;25.38;;
68168;SDS011;54981;50.206;15.978;2023-02-28T15:50:57;25.83;;;23.02;;
68168;SDS011;54981;50.206;15.978;2023-02-28T15:53:54;27.23;;;24.35;;
68168;SDS011;54981;50.206;15.978;2023-02-28T15:59:24;30.27;;;22.75;;
68168;SDS011;54981;50.206;15.978;2023-02-28T16:04:56;29.90;;;24.52;;
68168;SDS011;54981;50.206;15.978;2023-02-28T16:07:27;28.13;;;23.33;;
68168;SDS011;54981;50.206;15.978;2023-02-28T16:09:57;35.38;;;25.95;;
68168;SDS011;54981;50.206;15.978;2023-02-28T16:12:29;25.95;;;22.85;;
68168;SDS011;54981;50.206;15.978;2023-02-28T16:15:02;28.88;;;24.13;;
68168;SDS011;54981;50.206;15.978;2023-02-28T16:17:47;29.05;;;24.92;;
68168;SDS011;54981;50.206;15.978;2023-02-28T16:20:19;30.80;;;27.48;;
68168;SDS011;54981;50.206;15.978;2023-02-28T16:22:52;29.83;;;26.25;;
68168;SDS011;54981;50.206;15.978;2023-02-28T16:25:24;30.30;;;26.13;;
68168;SDS011;54981;50.206;15.978;2023-02-28T16:28:02;30.42;;;26.05;;
68168;SDS011;54981;50.206;15.978;2023-02-28T16:30:34;30.58;;;25.17;;
68168;SDS011;54981;50.206;15.978;2023-02-28T16:33:04;33.20;;;25.13;;
68168;SDS011;54981;50.206;15.978;2023-02-28T16:35:35;32.75;;;26.08;;
68168;SDS011;54981;50.206;15.978;2023-02-28T16:38:05;29.38;;;25.90;;
68168;SDS011;54981;50.206;15.978;2023-02-28T16:40:35;31.88;;;28.35;;
68168;SDS011;54981;50.206;15.978;2023-02-28T16:43:16;29.95;;;26.85;;
68168;SDS011;54981;50.206;15.978;2023-02-28T16:45:49;33.38;;;25.75;;
68168;SDS011;54981;50.206;15.978;2023-02-28T16:48:26;31.83;;;28.13;;
68168;SDS011;54981;50.206;15.978;2023-02-28T16:50:56;32.40;;;26.48;;
68168;SDS011;54981;50.206;15.978;2023-02-28T16:53:27;32.80;;;27.83;;
68168;SDS011;54981;50.206;15.978;2023-02-28T16:55:57;35.70;;;29.38;;
68168;SDS011;54981;50.206;15.978;2023-02-28T16:58:28;31.58;;;26.23;;
68168;SDS011;54981;50.206;15.978;2023-02-28T17:00:59;41.63;;;30.85;;
68168;SDS011;54981;50.206;15.978;2023-02-28T17:03:29;34.22;;;28.40;;
68168;SDS011;54981;50.206;15.978;2023-02-28T17:06:00;32.22;;;26.30;;
68168;SDS011;54981;50.206;15.978;2023-02-28T17:08:31;28.33;;;24.75;;
68168;SDS011;54981;50.206;15.978;2023-02-28T17:11:02;30.65;;;27.38;;
68168;SDS011;54981;50.206;15.978;2023-02-28T17:13:32;36.38;;;30.48;;
68168;SDS011;54981;50.206;15.978;2023-02-28T17:16:04;33.63;;;30.02;;
68168;SDS011;54981;50.206;15.978;2023-02-28T17:18:35;33.70;;;29.60;;
68168;SDS011;54981;50.206;15.978;2023-02-28T17:21:10;38.72;;;28.35;;
68168;SDS011;54981;50.206;15.978;2023-02-28T17:23:43;34.03;;;27.20;;
68168;SDS011;54981;50.206;15.978;2023-02-28T17:26:15;33.20;;;27.60;;
68168;SDS011;54981;50.206;15.978;2023-02-28T17:28:51;31.58;;;26.40;;
68168;SDS011;54981;50.206;15.978;2023-02-28T17:31:22;36.00;;;29.02;;
68168;SDS011;54981;50.206;15.978;2023-02-28T17:33:53;41.45;;;34.08;;